sensor_id;sensor_type;location;lat;lon;timestamp;temperature;humidity
4107;DHT22;21906;50.812;7.132;2022-07-06T00:01:49;18.80;52.30
4107;DHT22;21906;50.812;7.132;2022-07-06T00:04:19;18.70;52.20
4107;DHT22;21906;50.812;7.132;2022-07-06T00:06:45;18.40;52.20
4107;DHT22;21906;50.812;7.132;2022-07-06T00:09:11;18.30;52.20
4107;DHT22;21906;50.812;7.132;2022-07-06T00:11:37;18.40;52.00
4107;DHT22;21906;50.812;7.132;2022-07-06T00:14:03;18.40;52.50
4107;DHT22;21906;50.812;7.132;2022-07-06T00:16:28;18.40;53.30
4107;DHT22;21906;50.812;7.132;2022-07-06T00:18:54;18.30;54.50
4107;DHT22;21906;50.812;7.132;2022-07-06T00:21:20;18.20;55.20
4107;DHT22;21906;50.812;7.132;2022-07-06T00:23:45;18.00;55.80
4107;DHT22;21906;50.812;7.132;2022-07-06T00:26:12;17.90;55.50
4107;DHT22;21906;50.812;7.132;2022-07-06T00:28:38;18.00;55.20
4107;DHT22;21906;50.812;7.132;2022-07-06T00:31:03;18.00;54.60
4107;DHT22;21906;50.812;7.132;2022-07-06T00:33:31;17.90;54.10
4107;DHT22;21906;50.812;7.132;2022-07-06T00:35:57;17.90;54.40
4107;DHT22;21906;50.812;7.132;2022-07-06T00:38:22;17.90;54.80
4107;DHT22;21906;50.812;7.132;2022-07-06T00:40:48;17.80;55.20
4107;DHT22;21906;50.812;7.132;2022-07-06T00:43:14;17.70;55.00
4107;DHT22;21906;50.812;7.132;2022-07-06T00:45:40;17.70;54.50
4107;DHT22;21906;50.812;7.132;2022-07-06T00:48:05;17.70;54.40
4107;DHT22;21906;50.812;7.132;2022-07-06T00:50:32;17.60;54.40
4107;DHT22;21906;50.812;7.132;2022-07-06T00:53:03;17.70;54.20
4107;DHT22;21906;50.812;7.132;2022-07-06T00:55:36;17.60;54.10
4107;DHT22;21906;50.812;7.132;2022-07-06T00:58:05;17.60;54.40
4107;DHT22;21906;50.812;7.132;2022-07-06T01:00:32;17.60;54.60
4107;DHT22;21906;50.812;7.132;2022-07-06T01:02:58;17.50;54.80
4107;DHT22;21906;50.812;7.132;2022-07-06T01:05:24;17.50;54.90
4107;DHT22;21906;50.812;7.132;2022-07-06T01:07:52;17.60;54.80
4107;DHT22;21906;50.812;7.132;2022-07-06T01:10:18;17.40;54.90
4107;DHT22;21906;50.812;7.132;2022-07-06T01:12:46;17.50;54.90
4107;DHT22;21906;50.812;7.132;2022-07-06T01:15:22;17.40;55.40
4107;DHT22;21906;50.812;7.132;2022-07-06T01:17:49;17.40;55.20
4107;DHT22;21906;50.812;7.132;2022-07-06T01:20:15;17.40;55.40
4107;DHT22;21906;50.812;7.132;2022-07-06T01:22:42;17.40;55.60
4107;DHT22;21906;50.812;7.132;2022-07-06T01:25:08;17.40;55.60
4107;DHT22;21906;50.812;7.132;2022-07-06T01:27:35;17.30;55.40
4107;DHT22;21906;50.812;7.132;2022-07-06T01:30:09;17.20;55.20
4107;DHT22;21906;50.812;7.132;2022-07-06T01:32:35;17.20;55.70
4107;DHT22;21906;50.812;7.132;2022-07-06T01:35:01;17.20;55.30
4107;DHT22;21906;50.812;7.132;2022-07-06T01:37:27;17.20;55.50
4107;DHT22;21906;50.812;7.132;2022-07-06T01:39:53;17.20;55.30
4107;DHT22;21906;50.812;7.132;2022-07-06T01:42:18;17.00;55.50
4107;DHT22;21906;50.812;7.132;2022-07-06T01:44:44;17.10;55.50
4107;DHT22;21906;50.812;7.132;2022-07-06T01:47:11;17.00;55.70
4107;DHT22;21906;50.812;7.132;2022-07-06T01:49:36;17.00;56.10
4107;DHT22;21906;50.812;7.132;2022-07-06T01:52:02;17.00;56.10
4107;DHT22;21906;50.812;7.132;2022-07-06T01:54:28;16.90;56.50
4107;DHT22;21906;50.812;7.132;2022-07-06T01:56:54;16.80;56.80
4107;DHT22;21906;50.812;7.132;2022-07-06T01:59:20;16.80;57.10
4107;DHT22;21906;50.812;7.132;2022-07-06T02:01:45;16.70;57.30
4107;DHT22;21906;50.812;7.132;2022-07-06T02:04:11;16.80;57.40
4107;DHT22;21906;50.812;7.132;2022-07-06T02:06:37;16.80;57.40
4107;DHT22;21906;50.812;7.132;2022-07-06T02:09:03;16.90;57.40
4107;DHT22;21906;50.812;7.132;2022-07-06T02:11:28;16.90;57.40
4107;DHT22;21906;50.812;7.132;2022-07-06T02:13:54;16.80;57.60
4107;DHT22;21906;50.812;7.132;2022-07-06T02:16:19;16.70;57.70
4107;DHT22;21906;50.812;7.132;2022-07-06T02:18:45;16.70;57.80
4107;DHT22;21906;50.812;7.132;2022-07-06T02:21:11;16.60;58.10
4107;DHT22;21906;50.812;7.132;2022-07-06T02:23:36;16.50;58.50
4107;DHT22;21906;50.812;7.132;2022-07-06T02:26:02;16.40;58.90
4107;DHT22;21906;50.812;7.132;2022-07-06T02:28:29;16.40;59.00
4107;DHT22;21906;50.812;7.132;2022-07-06T02:30:55;16.30;59.30
4107;DHT22;21906;50.812;7.132;2022-07-06T02:33:21;16.20;59.80
4107;DHT22;21906;50.812;7.132;2022-07-06T02:35:46;16.20;59.60
4107;DHT22;21906;50.812;7.132;2022-07-06T02:38:12;16.30;59.50
4107;DHT22;21906;50.812;7.132;2022-07-06T02:40:38;16.20;59.70
4107;DHT22;21906;50.812;7.132;2022-07-06T02:43:04;16.10;59.80
4107;DHT22;21906;50.812;7.132;2022-07-06T02:45:31;16.20;59.80
4107;DHT22;21906;50.812;7.132;2022-07-06T02:47:57;16.00;60.20
4107;DHT22;21906;50.812;7.132;2022-07-06T02:50:23;16.00;60.20
4107;DHT22;21906;50.812;7.132;2022-07-06T02:52:49;16.00;60.40
4107;DHT22;21906;50.812;7.132;2022-07-06T02:55:15;15.90;60.30
4107;DHT22;21906;50.812;7.132;2022-07-06T02:57:41;15.90;60.60
4107;DHT22;21906;50.812;7.132;2022-07-06T03:00:07;15.70;61.10
4107;DHT22;21906;50.812;7.132;2022-07-06T03:02:34;15.90;60.80
4107;DHT22;21906;50.812;7.132;2022-07-06T03:05:00;15.90;60.80
4107;DHT22;21906;50.812;7.132;2022-07-06T03:07:26;15.90;60.80
4107;DHT22;21906;50.812;7.132;2022-07-06T03:09:52;15.90;60.60
4107;DHT22;21906;50.812;7.132;2022-07-06T03:12:17;15.90;60.70
4107;DHT22;21906;50.812;7.132;2022-07-06T03:14:43;15.80;60.90
4107;DHT22;21906;50.812;7.132;2022-07-06T03:17:09;15.70;61.40
4107;DHT22;21906;50.812;7.132;2022-07-06T03:19:34;15.80;61.20
4107;DHT22;21906;50.812;7.132;2022-07-06T03:22:00;15.50;61.80
4107;DHT22;21906;50.812;7.132;2022-07-06T03:24:26;15.30;62.70
4107;DHT22;21906;50.812;7.132;2022-07-06T03:26:52;15.40;62.50
4107;DHT22;21906;50.812;7.132;2022-07-06T03:29:17;15.30;63.00
4107;DHT22;21906;50.812;7.132;2022-07-06T03:31:43;15.30;62.70
4107;DHT22;21906;50.812;7.132;2022-07-06T03:34:09;15.40;62.50
4107;DHT22;21906;50.812;7.132;2022-07-06T03:36:34;15.50;62.40
4107;DHT22;21906;50.812;7.132;2022-07-06T03:39:00;15.50;62.20
4107;DHT22;21906;50.812;7.132;2022-07-06T03:41:26;15.60;62.00
4107;DHT22;21906;50.812;7.132;2022-07-06T03:43:52;15.60;61.80
4107;DHT22;21906;50.812;7.132;2022-07-06T03:46:17;15.70;61.60
4107;DHT22;21906;50.812;7.132;2022-07-06T03:48:43;15.60;61.70
4107;DHT22;21906;50.812;7.132;2022-07-06T03:51:09;15.50;62.00
4107;DHT22;21906;50.812;7.132;2022-07-06T03:53:36;15.60;61.90
4107;DHT22;21906;50.812;7.132;2022-07-06T03:56:02;15.30;62.80
4107;DHT22;21906;50.812;7.132;2022-07-06T03:58:46;15.30;62.90
4107;DHT22;21906;50.812;7.132;2022-07-06T04:01:12;15.30;62.80
4107;DHT22;21906;50.812;7.132;2022-07-06T04:03:37;15.50;62.50
4107;DHT22;21906;50.812;7.132;2022-07-06T04:06:04;15.40;62.40
4107;DHT22;21906;50.812;7.132;2022-07-06T04:08:30;15.40;62.50
4107;DHT22;21906;50.812;7.132;2022-07-06T04:10:55;15.50;62.30
4107;DHT22;21906;50.812;7.132;2022-07-06T04:13:21;15.60;62.10
4107;DHT22;21906;50.812;7.132;2022-07-06T04:15:47;15.60;61.90
4107;DHT22;21906;50.812;7.132;2022-07-06T04:18:12;15.50;62.30
4107;DHT22;21906;50.812;7.132;2022-07-06T04:20:38;15.50;62.50
4107;DHT22;21906;50.812;7.132;2022-07-06T04:23:04;15.30;63.00
4107;DHT22;21906;50.812;7.132;2022-07-06T04:25:29;15.40;63.00
4107;DHT22;21906;50.812;7.132;2022-07-06T04:27:55;15.60;62.70
4107;DHT22;21906;50.812;7.132;2022-07-06T04:30:21;15.50;62.80
4107;DHT22;21906;50.812;7.132;2022-07-06T04:32:46;15.60;62.80
4107;DHT22;21906;50.812;7.132;2022-07-06T04:35:12;15.60;62.60
4107;DHT22;21906;50.812;7.132;2022-07-06T04:37:38;15.60;63.10
4107;DHT22;21906;50.812;7.132;2022-07-06T04:40:04;15.60;62.90
4107;DHT22;21906;50.812;7.132;2022-07-06T04:42:30;15.70;62.70
4107;DHT22;21906;50.812;7.132;2022-07-06T04:44:56;15.70;62.70
4107;DHT22;21906;50.812;7.132;2022-07-06T04:47:21;15.70;62.90
4107;DHT22;21906;50.812;7.132;2022-07-06T04:49:47;15.90;62.70
4107;DHT22;21906;50.812;7.132;2022-07-06T04:52:13;15.90;62.10
4107;DHT22;21906;50.812;7.132;2022-07-06T04:54:38;15.90;62.30
4107;DHT22;21906;50.812;7.132;2022-07-06T04:57:04;15.90;62.20
4107;DHT22;21906;50.812;7.132;2022-07-06T04:59:30;16.00;62.30
4107;DHT22;21906;50.812;7.132;2022-07-06T05:01:56;16.00;62.20
4107;DHT22;21906;50.812;7.132;2022-07-06T05:04:21;15.90;62.90
4107;DHT22;21906;50.812;7.132;2022-07-06T05:06:49;15.90;63.20
4107;DHT22;21906;50.812;7.132;2022-07-06T05:09:14;15.90;62.80
4107;DHT22;21906;50.812;7.132;2022-07-06T05:11:40;15.90;62.60
4107;DHT22;21906;50.812;7.132;2022-07-06T05:14:06;15.90;63.40
4107;DHT22;21906;50.812;7.132;2022-07-06T05:16:32;15.90;63.10
4107;DHT22;21906;50.812;7.132;2022-07-06T05:18:58;16.20;62.20
4107;DHT22;21906;50.812;7.132;2022-07-06T05:21:24;16.30;61.80
4107;DHT22;21906;50.812;7.132;2022-07-06T05:23:50;16.20;62.00
4107;DHT22;21906;50.812;7.132;2022-07-06T05:26:15;16.10;62.00
4107;DHT22;21906;50.812;7.132;2022-07-06T05:28:41;16.10;62.30
4107;DHT22;21906;50.812;7.132;2022-07-06T05:31:07;16.10;61.90
4107;DHT22;21906;50.812;7.132;2022-07-06T05:33:33;16.30;61.90
4107;DHT22;21906;50.812;7.132;2022-07-06T05:35:58;16.40;61.30
4107;DHT22;21906;50.812;7.132;2022-07-06T05:38:24;16.30;61.90
4107;DHT22;21906;50.812;7.132;2022-07-06T05:40:50;16.30;61.90
4107;DHT22;21906;50.812;7.132;2022-07-06T05:43:16;16.20;61.80
4107;DHT22;21906;50.812;7.132;2022-07-06T05:45:42;16.40;61.40
4107;DHT22;21906;50.812;7.132;2022-07-06T05:48:07;16.40;61.50
4107;DHT22;21906;50.812;7.132;2022-07-06T05:50:52;16.20;62.10
4107;DHT22;21906;50.812;7.132;2022-07-06T05:53:17;16.40;61.90
4107;DHT22;21906;50.812;7.132;2022-07-06T05:55:43;16.50;61.80
4107;DHT22;21906;50.812;7.132;2022-07-06T05:58:09;16.50;61.60
4107;DHT22;21906;50.812;7.132;2022-07-06T06:00:34;16.40;61.40
4107;DHT22;21906;50.812;7.132;2022-07-06T06:03:00;16.20;62.40
4107;DHT22;21906;50.812;7.132;2022-07-06T06:05:26;16.40;62.00
4107;DHT22;21906;50.812;7.132;2022-07-06T06:07:52;16.50;61.60
4107;DHT22;21906;50.812;7.132;2022-07-06T06:10:19;16.50;61.40
4107;DHT22;21906;50.812;7.132;2022-07-06T06:12:45;16.40;61.50
4107;DHT22;21906;50.812;7.132;2022-07-06T06:15:11;16.50;61.80
4107;DHT22;21906;50.812;7.132;2022-07-06T06:17:38;16.70;61.60
4107;DHT22;21906;50.812;7.132;2022-07-06T06:20:06;16.90;61.10
4107;DHT22;21906;50.812;7.132;2022-07-06T06:22:53;16.80;61.60
4107;DHT22;21906;50.812;7.132;2022-07-06T06:25:26;16.70;61.70
4107;DHT22;21906;50.812;7.132;2022-07-06T06:27:52;16.70;61.80
4107;DHT22;21906;50.812;7.132;2022-07-06T06:30:17;16.60;62.00
4107;DHT22;21906;50.812;7.132;2022-07-06T06:32:43;16.70;62.20
4107;DHT22;21906;50.812;7.132;2022-07-06T06:35:09;16.90;61.60
4107;DHT22;21906;50.812;7.132;2022-07-06T06:37:35;16.90;61.30
4107;DHT22;21906;50.812;7.132;2022-07-06T06:40:01;17.00;60.70
4107;DHT22;21906;50.812;7.132;2022-07-06T06:42:27;16.90;61.00
4107;DHT22;21906;50.812;7.132;2022-07-06T06:44:53;17.20;60.20
4107;DHT22;21906;50.812;7.132;2022-07-06T06:47:18;17.40;59.80
4107;DHT22;21906;50.812;7.132;2022-07-06T06:49:45;17.40;59.30
4107;DHT22;21906;50.812;7.132;2022-07-06T06:52:11;17.40;59.70
4107;DHT22;21906;50.812;7.132;2022-07-06T06:54:37;17.40;59.40
4107;DHT22;21906;50.812;7.132;2022-07-06T06:57:02;17.40;58.90
4107;DHT22;21906;50.812;7.132;2022-07-06T06:59:28;17.50;59.40
4107;DHT22;21906;50.812;7.132;2022-07-06T07:01:54;17.50;59.10
4107;DHT22;21906;50.812;7.132;2022-07-06T07:04:19;17.50;59.20
4107;DHT22;21906;50.812;7.132;2022-07-06T07:06:45;17.50;59.30
4107;DHT22;21906;50.812;7.132;2022-07-06T07:09:11;17.60;58.10
4107;DHT22;21906;50.812;7.132;2022-07-06T07:11:36;17.50;58.70
4107;DHT22;21906;50.812;7.132;2022-07-06T07:14:02;17.50;58.00
4107;DHT22;21906;50.812;7.132;2022-07-06T07:16:28;17.50;57.50
4107;DHT22;21906;50.812;7.132;2022-07-06T07:18:54;17.40;58.20
4107;DHT22;21906;50.812;7.132;2022-07-06T07:21:19;17.50;59.10
4107;DHT22;21906;50.812;7.132;2022-07-06T07:23:45;17.70;57.80
4107;DHT22;21906;50.812;7.132;2022-07-06T07:26:11;17.80;57.40
4107;DHT22;21906;50.812;7.132;2022-07-06T07:28:36;17.80;56.70
4107;DHT22;21906;50.812;7.132;2022-07-06T07:31:03;17.90;56.10
4107;DHT22;21906;50.812;7.132;2022-07-06T07:33:29;18.00;56.00
4107;DHT22;21906;50.812;7.132;2022-07-06T07:35:55;18.10;55.10
4107;DHT22;21906;50.812;7.132;2022-07-06T07:38:20;18.20;54.80
4107;DHT22;21906;50.812;7.132;2022-07-06T07:40:46;18.30;54.90
4107;DHT22;21906;50.812;7.132;2022-07-06T07:43:12;18.60;54.30
4107;DHT22;21906;50.812;7.132;2022-07-06T07:45:38;18.60;54.20
4107;DHT22;21906;50.812;7.132;2022-07-06T07:48:04;18.40;54.30
4107;DHT22;21906;50.812;7.132;2022-07-06T07:50:29;18.30;54.80
4107;DHT22;21906;50.812;7.132;2022-07-06T07:52:55;18.40;54.50
4107;DHT22;21906;50.812;7.132;2022-07-06T07:55:21;18.60;52.20
4107;DHT22;21906;50.812;7.132;2022-07-06T07:57:47;18.70;52.70
4107;DHT22;21906;50.812;7.132;2022-07-06T08:00:13;18.60;53.40
4107;DHT22;21906;50.812;7.132;2022-07-06T08:02:39;18.50;53.90
4107;DHT22;21906;50.812;7.132;2022-07-06T08:05:05;18.60;53.30
4107;DHT22;21906;50.812;7.132;2022-07-06T08:07:31;18.70;53.30
4107;DHT22;21906;50.812;7.132;2022-07-06T08:09:56;18.80;52.60
4107;DHT22;21906;50.812;7.132;2022-07-06T08:12:22;18.80;52.70
4107;DHT22;21906;50.812;7.132;2022-07-06T08:14:47;18.90;52.80
4107;DHT22;21906;50.812;7.132;2022-07-06T08:17:13;18.90;53.10
4107;DHT22;21906;50.812;7.132;2022-07-06T08:19:39;18.80;52.60
4107;DHT22;21906;50.812;7.132;2022-07-06T08:22:04;18.80;53.50
4107;DHT22;21906;50.812;7.132;2022-07-06T08:24:36;18.80;53.40
4107;DHT22;21906;50.812;7.132;2022-07-06T08:27:02;18.80;53.30
4107;DHT22;21906;50.812;7.132;2022-07-06T08:29:29;18.70;53.10
4107;DHT22;21906;50.812;7.132;2022-07-06T08:31:55;18.80;53.20
4107;DHT22;21906;50.812;7.132;2022-07-06T08:34:21;18.90;52.20
4107;DHT22;21906;50.812;7.132;2022-07-06T08:36:46;18.90;51.80
4107;DHT22;21906;50.812;7.132;2022-07-06T08:39:12;18.90;52.90
4107;DHT22;21906;50.812;7.132;2022-07-06T08:41:41;18.80;52.40
4107;DHT22;21906;50.812;7.132;2022-07-06T08:44:08;18.80;52.80
4107;DHT22;21906;50.812;7.132;2022-07-06T08:46:35;18.50;53.20
4107;DHT22;21906;50.812;7.132;2022-07-06T08:49:03;18.50;53.10
4107;DHT22;21906;50.812;7.132;2022-07-06T08:51:29;18.60;53.00
4107;DHT22;21906;50.812;7.132;2022-07-06T08:53:56;18.80;53.20
4107;DHT22;21906;50.812;7.132;2022-07-06T08:56:22;18.90;52.20
4107;DHT22;21906;50.812;7.132;2022-07-06T08:58:48;19.00;51.70
4107;DHT22;21906;50.812;7.132;2022-07-06T09:01:14;19.00;51.50
4107;DHT22;21906;50.812;7.132;2022-07-06T09:03:41;18.90;51.40
4107;DHT22;21906;50.812;7.132;2022-07-06T09:06:07;18.90;51.60
4107;DHT22;21906;50.812;7.132;2022-07-06T09:08:34;18.90;52.00
4107;DHT22;21906;50.812;7.132;2022-07-06T09:11:02;19.10;51.40
4107;DHT22;21906;50.812;7.132;2022-07-06T09:13:28;19.40;50.90
4107;DHT22;21906;50.812;7.132;2022-07-06T09:15:53;19.50;50.30
4107;DHT22;21906;50.812;7.132;2022-07-06T09:18:21;19.60;50.00
4107;DHT22;21906;50.812;7.132;2022-07-06T09:20:47;19.40;49.80
4107;DHT22;21906;50.812;7.132;2022-07-06T09:23:15;19.40;49.50
4107;DHT22;21906;50.812;7.132;2022-07-06T09:25:42;19.50;48.60
4107;DHT22;21906;50.812;7.132;2022-07-06T09:28:08;19.80;48.60
4107;DHT22;21906;50.812;7.132;2022-07-06T09:30:34;19.80;47.60
4107;DHT22;21906;50.812;7.132;2022-07-06T09:33:08;19.90;47.00
4107;DHT22;21906;50.812;7.132;2022-07-06T09:35:38;20.00;45.70
4107;DHT22;21906;50.812;7.132;2022-07-06T09:38:14;20.10;46.30
4107;DHT22;21906;50.812;7.132;2022-07-06T09:40:44;20.10;47.30
4107;DHT22;21906;50.812;7.132;2022-07-06T09:43:11;20.10;46.60
4107;DHT22;21906;50.812;7.132;2022-07-06T09:45:38;20.20;46.70
4107;DHT22;21906;50.812;7.132;2022-07-06T09:50:46;20.20;46.70
4107;DHT22;21906;50.812;7.132;2022-07-06T09:53:12;20.10;46.70
4107;DHT22;21906;50.812;7.132;2022-07-06T09:55:42;20.20;47.00
4107;DHT22;21906;50.812;7.132;2022-07-06T09:58:08;20.20;46.30
4107;DHT22;21906;50.812;7.132;2022-07-06T10:00:34;20.10;46.40
4107;DHT22;21906;50.812;7.132;2022-07-06T10:03:00;20.20;47.10
4107;DHT22;21906;50.812;7.132;2022-07-06T10:05:27;20.40;46.20
4107;DHT22;21906;50.812;7.132;2022-07-06T10:07:59;20.20;46.00
4107;DHT22;21906;50.812;7.132;2022-07-06T10:10:28;20.00;46.10
4107;DHT22;21906;50.812;7.132;2022-07-06T10:12:58;20.10;46.30
4107;DHT22;21906;50.812;7.132;2022-07-06T10:15:29;20.00;47.10
4107;DHT22;21906;50.812;7.132;2022-07-06T10:17:58;20.00;46.70
4107;DHT22;21906;50.812;7.132;2022-07-06T10:20:31;20.10;46.70
4107;DHT22;21906;50.812;7.132;2022-07-06T10:22:59;20.10;46.30
4107;DHT22;21906;50.812;7.132;2022-07-06T10:25:26;20.40;45.20
4107;DHT22;21906;50.812;7.132;2022-07-06T10:27:53;20.40;45.30
4107;DHT22;21906;50.812;7.132;2022-07-06T10:30:19;20.40;45.60
4107;DHT22;21906;50.812;7.132;2022-07-06T10:32:48;20.10;45.60
4107;DHT22;21906;50.812;7.132;2022-07-06T10:35:15;20.20;44.50
4107;DHT22;21906;50.812;7.132;2022-07-06T10:37:45;20.10;44.20
4107;DHT22;21906;50.812;7.132;2022-07-06T10:40:41;20.10;45.60
4107;DHT22;21906;50.812;7.132;2022-07-06T10:45:58;20.20;45.00
4107;DHT22;21906;50.812;7.132;2022-07-06T10:48:23;20.20;44.30
4107;DHT22;21906;50.812;7.132;2022-07-06T10:50:56;20.00;45.50
4107;DHT22;21906;50.812;7.132;2022-07-06T10:53:30;20.10;44.90
4107;DHT22;21906;50.812;7.132;2022-07-06T10:55:58;20.30;44.60
4107;DHT22;21906;50.812;7.132;2022-07-06T10:58:49;20.30;44.20
4107;DHT22;21906;50.812;7.132;2022-07-06T11:01:17;20.40;43.70
4107;DHT22;21906;50.812;7.132;2022-07-06T11:06:16;20.80;42.70
4107;DHT22;21906;50.812;7.132;2022-07-06T11:11:26;20.90;44.60
4107;DHT22;21906;50.812;7.132;2022-07-06T11:19:15;21.40;41.70
4107;DHT22;21906;50.812;7.132;2022-07-06T11:21:48;21.50;43.70
4107;DHT22;21906;50.812;7.132;2022-07-06T11:24:18;21.60;41.90
4107;DHT22;21906;50.812;7.132;2022-07-06T11:26:45;21.50;41.40
4107;DHT22;21906;50.812;7.132;2022-07-06T11:29:12;21.40;43.00
4107;DHT22;21906;50.812;7.132;2022-07-06T11:31:40;21.50;42.10
4107;DHT22;21906;50.812;7.132;2022-07-06T11:34:08;21.60;42.30
4107;DHT22;21906;50.812;7.132;2022-07-06T11:36:34;21.40;42.30
4107;DHT22;21906;50.812;7.132;2022-07-06T11:39:00;21.60;42.70
4107;DHT22;21906;50.812;7.132;2022-07-06T11:41:26;21.50;42.70
4107;DHT22;21906;50.812;7.132;2022-07-06T11:43:52;21.60;42.70
4107;DHT22;21906;50.812;7.132;2022-07-06T11:46:32;21.50;41.70
4107;DHT22;21906;50.812;7.132;2022-07-06T11:51:31;21.70;42.30
4107;DHT22;21906;50.812;7.132;2022-07-06T11:54:00;21.50;41.70
4107;DHT22;21906;50.812;7.132;2022-07-06T11:56:27;21.40;42.90
4107;DHT22;21906;50.812;7.132;2022-07-06T11:58:54;21.40;42.60
4107;DHT22;21906;50.812;7.132;2022-07-06T12:01:22;21.70;41.80
4107;DHT22;21906;50.812;7.132;2022-07-06T12:03:52;21.70;42.70
4107;DHT22;21906;50.812;7.132;2022-07-06T12:06:22;21.80;41.40
4107;DHT22;21906;50.812;7.132;2022-07-06T12:08:53;21.90;41.50
4107;DHT22;21906;50.812;7.132;2022-07-06T12:11:32;21.90;41.80
4107;DHT22;21906;50.812;7.132;2022-07-06T12:14:12;22.20;39.50
4107;DHT22;21906;50.812;7.132;2022-07-06T12:16:39;22.40;42.40
4107;DHT22;21906;50.812;7.132;2022-07-06T12:19:06;22.50;42.50
4107;DHT22;21906;50.812;7.132;2022-07-06T12:21:34;22.60;39.10
4107;DHT22;21906;50.812;7.132;2022-07-06T12:24:00;22.40;40.60
4107;DHT22;21906;50.812;7.132;2022-07-06T12:26:28;22.40;41.30
4107;DHT22;21906;50.812;7.132;2022-07-06T12:29:06;22.40;40.00
4107;DHT22;21906;50.812;7.132;2022-07-06T12:31:56;22.10;39.70
4107;DHT22;21906;50.812;7.132;2022-07-06T12:34:26;22.00;38.80
4107;DHT22;21906;50.812;7.132;2022-07-06T12:36:56;22.00;39.10
4107;DHT22;21906;50.812;7.132;2022-07-06T12:39:25;21.80;41.00
4107;DHT22;21906;50.812;7.132;2022-07-06T12:41:55;21.90;41.70
4107;DHT22;21906;50.812;7.132;2022-07-06T12:44:25;22.30;39.10
4107;DHT22;21906;50.812;7.132;2022-07-06T12:49:28;22.90;37.40
4107;DHT22;21906;50.812;7.132;2022-07-06T12:51:58;22.90;37.50
4107;DHT22;21906;50.812;7.132;2022-07-06T12:54:33;22.80;37.80
4107;DHT22;21906;50.812;7.132;2022-07-06T12:57:14;22.80;36.90
4107;DHT22;21906;50.812;7.132;2022-07-06T12:59:43;22.80;37.60
4107;DHT22;21906;50.812;7.132;2022-07-06T13:02:24;22.60;37.90
4107;DHT22;21906;50.812;7.132;2022-07-06T13:05:01;22.60;38.70
4107;DHT22;21906;50.812;7.132;2022-07-06T13:07:28;22.80;38.20
4107;DHT22;21906;50.812;7.132;2022-07-06T13:09:55;22.90;38.20
4107;DHT22;21906;50.812;7.132;2022-07-06T13:12:21;23.00;37.40
4107;DHT22;21906;50.812;7.132;2022-07-06T13:14:48;22.90;37.70
4107;DHT22;21906;50.812;7.132;2022-07-06T13:17:13;22.90;38.90
4107;DHT22;21906;50.812;7.132;2022-07-06T13:19:39;22.90;38.30
4107;DHT22;21906;50.812;7.132;2022-07-06T13:22:05;22.90;39.00
4107;DHT22;21906;50.812;7.132;2022-07-06T13:24:30;22.60;38.50
4107;DHT22;21906;50.812;7.132;2022-07-06T13:26:57;22.80;39.20
4107;DHT22;21906;50.812;7.132;2022-07-06T13:29:23;22.60;38.00
4107;DHT22;21906;50.812;7.132;2022-07-06T13:31:49;22.70;39.80
4107;DHT22;21906;50.812;7.132;2022-07-06T13:34:15;22.90;38.40
4107;DHT22;21906;50.812;7.132;2022-07-06T13:36:41;22.90;38.00
4107;DHT22;21906;50.812;7.132;2022-07-06T13:39:07;23.10;38.20
4107;DHT22;21906;50.812;7.132;2022-07-06T13:41:33;23.30;36.40
4107;DHT22;21906;50.812;7.132;2022-07-06T13:43:59;23.40;35.90
4107;DHT22;21906;50.812;7.132;2022-07-06T13:46:29;23.20;37.70
4107;DHT22;21906;50.812;7.132;2022-07-06T13:48:56;23.00;38.30
4107;DHT22;21906;50.812;7.132;2022-07-06T13:51:23;23.10;38.10
4107;DHT22;21906;50.812;7.132;2022-07-06T13:53:49;22.90;38.00
4107;DHT22;21906;50.812;7.132;2022-07-06T13:56:16;22.90;38.10
4107;DHT22;21906;50.812;7.132;2022-07-06T13:58:42;23.10;38.40
4107;DHT22;21906;50.812;7.132;2022-07-06T14:01:08;22.90;38.20
4107;DHT22;21906;50.812;7.132;2022-07-06T14:03:34;23.10;38.10
4107;DHT22;21906;50.812;7.132;2022-07-06T14:06:03;23.20;38.60
4107;DHT22;21906;50.812;7.132;2022-07-06T14:08:29;23.30;38.20
4107;DHT22;21906;50.812;7.132;2022-07-06T14:10:56;23.60;37.50
4107;DHT22;21906;50.812;7.132;2022-07-06T14:13:23;23.70;37.10
4107;DHT22;21906;50.812;7.132;2022-07-06T14:15:49;23.60;36.80
4107;DHT22;21906;50.812;7.132;2022-07-06T14:18:15;23.40;36.90
4107;DHT22;21906;50.812;7.132;2022-07-06T14:20:43;23.60;37.50
4107;DHT22;21906;50.812;7.132;2022-07-06T14:23:09;23.90;37.20
4107;DHT22;21906;50.812;7.132;2022-07-06T14:25:35;24.30;37.40
4107;DHT22;21906;50.812;7.132;2022-07-06T14:28:01;24.50;36.50
4107;DHT22;21906;50.812;7.132;2022-07-06T14:30:27;24.50;35.90
4107;DHT22;21906;50.812;7.132;2022-07-06T14:32:53;24.70;35.00
4107;DHT22;21906;50.812;7.132;2022-07-06T14:35:19;24.80;34.90
4107;DHT22;21906;50.812;7.132;2022-07-06T14:37:45;24.90;35.20
4107;DHT22;21906;50.812;7.132;2022-07-06T14:40:12;25.40;34.50
4107;DHT22;21906;50.812;7.132;2022-07-06T14:42:38;25.40;33.10
4107;DHT22;21906;50.812;7.132;2022-07-06T14:45:03;25.10;34.10
4107;DHT22;21906;50.812;7.132;2022-07-06T14:47:29;24.90;35.20
4107;DHT22;21906;50.812;7.132;2022-07-06T14:49:55;24.60;34.60
4107;DHT22;21906;50.812;7.132;2022-07-06T14:52:20;24.60;35.80
4107;DHT22;21906;50.812;7.132;2022-07-06T14:54:46;24.60;35.80
4107;DHT22;21906;50.812;7.132;2022-07-06T14:57:12;24.60;35.10
4107;DHT22;21906;50.812;7.132;2022-07-06T14:59:38;25.20;36.40
4107;DHT22;21906;50.812;7.132;2022-07-06T15:02:03;25.40;34.60
4107;DHT22;21906;50.812;7.132;2022-07-06T15:04:29;25.90;35.00
4107;DHT22;21906;50.812;7.132;2022-07-06T15:06:55;26.20;33.40
4107;DHT22;21906;50.812;7.132;2022-07-06T15:09:21;25.80;33.80
4107;DHT22;21906;50.812;7.132;2022-07-06T15:11:47;25.90;33.00
4107;DHT22;21906;50.812;7.132;2022-07-06T15:14:12;26.80;33.20
4107;DHT22;21906;50.812;7.132;2022-07-06T15:16:41;27.90;31.90
4107;DHT22;21906;50.812;7.132;2022-07-06T15:19:07;29.30;28.80
4107;DHT22;21906;50.812;7.132;2022-07-06T15:21:33;30.20;28.80
4107;DHT22;21906;50.812;7.132;2022-07-06T15:23:59;30.60;28.30
4107;DHT22;21906;50.812;7.132;2022-07-06T15:26:24;31.00;27.00
4107;DHT22;21906;50.812;7.132;2022-07-06T15:28:51;31.30;27.40
4107;DHT22;21906;50.812;7.132;2022-07-06T15:31:16;31.40;26.00
4107;DHT22;21906;50.812;7.132;2022-07-06T15:33:42;30.80;25.80
4107;DHT22;21906;50.812;7.132;2022-07-06T15:36:08;31.20;26.80
4107;DHT22;21906;50.812;7.132;2022-07-06T15:38:33;30.70;26.30
4107;DHT22;21906;50.812;7.132;2022-07-06T15:41:00;30.30;27.20
4107;DHT22;21906;50.812;7.132;2022-07-06T15:43:31;28.90;28.20
4107;DHT22;21906;50.812;7.132;2022-07-06T15:46:00;28.10;29.70
4107;DHT22;21906;50.812;7.132;2022-07-06T15:48:27;29.40;29.30
4107;DHT22;21906;50.812;7.132;2022-07-06T15:50:54;30.70;27.90
4107;DHT22;21906;50.812;7.132;2022-07-06T15:53:20;31.60;25.90
4107;DHT22;21906;50.812;7.132;2022-07-06T15:55:46;31.90;25.80
4107;DHT22;21906;50.812;7.132;2022-07-06T15:58:12;32.90;23.80
4107;DHT22;21906;50.812;7.132;2022-07-06T16:00:38;33.70;23.90
4107;DHT22;21906;50.812;7.132;2022-07-06T16:03:04;34.20;23.00
4107;DHT22;21906;50.812;7.132;2022-07-06T16:05:30;32.90;24.00